Time;durP1;ratioP1;P1;durP2;ratioP2;P2;SDS_P1;SDS_P2;PMS_P1;PMS_P2;Temp;Humidity;BMP_temperature;BMP_pressure;BME280_temperature;BME280_humidity;BME280_pressure;Samples;Min_cycle;Max_cycle;Signal;HPM_P1;HPM_P2
2021/03/01 02:12:09;;;;;;;2.47;2.17;;;;;;;1.68;94.29;100019.38;1796136;78;23036;-56
2021/03/01 02:15:10;;;;;;;2.52;1.80;;;;;;;1.66;94.25;100025.23;1764419;80;21143;-55
2021/03/01 02:17:38;;;;;;;2.55;1.90;;;;;;;1.71;94.26;100027.22;1724494;82;21171;-56
2021/03/01 02:20:11;;;;;;;3.12;1.90;;;;;;;1.76;94.32;100024.79;1726238;82;21340;-55
2021/03/01 02:22:38;;;;;;;2.83;2.10;;;;;;;1.83;94.28;100030.73;1750751;80;21157;-55
2021/03/01 02:25:13;;;;;;;3.20;2.42;;;;;;;1.85;93.96;100032.41;1775124;80;21190;-55
2021/03/01 02:27:46;;;;;;;3.08;2.27;;;;;;;1.91;94.02;100035.27;1762371;80;21641;-56
2021/03/01 02:30:28;;;;;;;2.52;1.90;;;;;;;1.98;93.92;100043.39;1786240;79;21174;-56
2021/03/01 02:33:08;;;;;;;3.83;2.35;;;;;;;2.04;93.74;100049.78;1754189;81;21196;-56
2021/03/01 02:35:37;;;;;;;3.80;2.72;;;;;;;2.04;93.26;100061.75;1737841;81;21570;-56
2021/03/01 02:38:08;;;;;;;4.05;2.50;;;;;;;2.08;93.28;100069.54;1749876;80;21591;-55
2021/03/01 02:40:36;;;;;;;2.35;2.10;;;;;;;2.10;92.92;100068.14;1741223;81;21170;-55
2021/03/01 02:43:04;;;;;;;3.42;2.35;;;;;;;2.11;92.75;100082.72;1742477;81;21188;-55
2021/03/01 02:45:32;;;;;;;2.77;2.08;;;;;;;2.08;92.41;100084.63;1742526;81;21158;-55
2021/03/01 02:48:00;;;;;;;4.12;2.45;;;;;;;2.02;92.14;100086.20;1751823;81;21739;-55
2021/03/01 02:50:28;;;;;;;2.12;1.70;;;;;;;1.95;92.01;100086.91;1728631;81;21186;-56
2021/03/01 02:52:56;;;;;;;2.75;2.00;;;;;;;1.94;92.02;100093.63;1719003;81;21202;-55
2021/03/01 02:55:24;;;;;;;2.27;1.80;;;;;;;1.93;91.99;100098.08;1734960;80;21299;-55
2021/03/01 02:57:53;;;;;;;1.90;1.67;;;;;;;1.90;91.91;100101.33;1713739;81;21465;-56
2021/03/01 03:00:22;;;;;;;1.98;1.62;;;;;;;1.86;91.95;100099.23;1696849;81;21208;-55
2021/03/01 03:02:50;;;;;;;5.28;1.90;;;;;;;1.86;92.05;100106.34;1732661;81;21170;-55
2021/03/01 03:05:18;;;;;;;2.98;1.55;;;;;;;1.87;92.03;100112.06;1747555;81;21159;-55
2021/03/01 03:07:47;;;;;;;1.60;1.50;;;;;;;1.88;91.98;100116.47;1730547;81;21193;-56
2021/03/01 03:10:15;;;;;;;2.30;1.80;;;;;;;1.84;91.93;100122.81;1735227;81;21345;-54
2021/03/01 03:12:44;;;;;;;2.30;1.87;;;;;;;1.83;91.91;100123.30;1757956;81;21155;-54
2021/03/01 03:15:18;;;;;;;2.52;1.82;;;;;;;1.83;91.81;100129.06;1747753;81;21186;-56
2021/03/01 03:17:46;;;;;;;2.98;1.87;;;;;;;1.83;91.87;100138.37;1751329;81;21862;-55
2021/03/01 03:20:14;;;;;;;2.60;2.00;;;;;;;1.84;91.89;100139.63;1747352;82;21348;-56
2021/03/01 03:22:41;;;;;;;2.33;1.77;;;;;;;1.82;91.67;100140.16;1750947;81;21167;-55
2021/03/01 03:25:10;;;;;;;3.12;2.20;;;;;;;1.77;91.65;100142.59;1750324;82;21268;-56
2021/03/01 03:27:39;;;;;;;2.47;2.05;;;;;;;1.77;91.82;100146.59;1749285;80;21142;-56
2021/03/01 03:30:15;;;;;;;4.87;2.33;;;;;;;1.77;91.96;100150.57;1748942;81;21138;-56
2021/03/01 03:32:43;;;;;;;2.40;2.02;;;;;;;1.80;92.07;100157.95;1745285;81;21607;-55
2021/03/01 03:35:12;;;;;;;2.98;2.12;;;;;;;1.81;92.02;100142.88;1748793;81;21119;-55
2021/03/01 03:37:54;;;;;;;2.55;2.25;;;;;;;1.81;91.97;100148.20;1743934;82;21637;-55
2021/03/01 03:40:22;;;;;;;2.10;1.85;;;;;;;1.77;91.91;100148.75;1746960;82;21191;-55
2021/03/01 03:42:50;;;;;;;3.17;2.15;;;;;;;1.73;92.02;100151.58;1741377;82;21663;-55
2021/03/01 03:45:17;;;;;;;2.52;1.85;;;;;;;1.72;92.03;100149.88;1683604;83;21252;-55
2021/03/01 03:47:48;;;;;;;2.25;1.75;;;;;;;1.71;92.04;100154.77;1746980;82;21159;-57
2021/03/01 03:50:16;;;;;;;2.30;2.00;;;;;;;1.67;92.12;100154.03;1745825;81;21757;-56
2021/03/01 03:52:46;;;;;;;2.33;2.12;;;;;;;1.69;92.20;100150.84;1746899;80;21216;-55
2021/03/01 03:55:20;;;;;;;2.30;2.00;;;;;;;1.70;92.24;100158.36;1755407;81;21600;-55
2021/03/01 03:57:57;;;;;;;;;;;;;;;1.68;92.20;100153.12;1740809;82;21158;-55
2021/03/01 04:00:27;;;;;;;3.55;1.90;;;;;;;1.66;92.19;100162.91;1749942;81;20472;-55
2021/03/01 04:03:00;;;;;;;3.25;1.80;;;;;;;1.69;92.40;100161.48;1743907;82;21170;-55
2021/03/01 04:05:28;;;;;;;1.92;1.55;;;;;;;1.76;92.50;100164.77;1749817;81;21285;-56
2021/03/01 04:07:56;;;;;;;3.15;1.95;;;;;;;1.85;92.45;100168.41;1749708;82;21338;-56
2021/03/01 04:10:28;;;;;;;2.20;1.85;;;;;;;1.90;92.17;100165.13;1749303;81;21167;-56
2021/03/01 04:12:56;;;;;;;2.90;1.60;;;;;;;1.93;92.05;100171.63;1752078;81;21178;-56
2021/03/01 04:15:23;;;;;;;2.10;1.90;;;;;;;1.97;91.85;100163.94;1768738;81;21160;-54
2021/03/01 04:17:51;;;;;;;3.25;1.87;;;;;;;1.98;91.60;100171.00;1770356;81;21143;-55
2021/03/01 04:20:22;;;;;;;2.35;1.60;;;;;;;2.00;91.43;100171.81;1761260;79;21556;-58
2021/03/01 04:22:51;;;;;;;2.42;2.15;;;;;;;2.00;91.18;100178.00;1771893;80;21175;-54
2021/03/01 04:25:19;;;;;;;4.42;2.10;;;;;;;1.96;90.94;100181.70;1747454;81;21139;-55
2021/03/01 04:27:46;;;;;;;2.42;2.17;;;;;;;1.96;91.04;100184.36;1766825;80;21566;-55
2021/03/01 04:30:15;;;;;;;2.77;2.05;;;;;;;2.01;91.13;100187.69;1706396;81;21187;-56
2021/03/01 04:32:45;;;;;;;2.75;2.20;;;;;;;2.07;90.88;100182.62;1765647;80;21265;-55
2021/03/01 04:35:16;;;;;;;4.75;2.77;;;;;;;2.06;90.54;100188.84;1766278;80;21175;-55
2021/03/01 04:37:45;;;;;;;3.67;2.52;;;;;;;2.03;90.33;100193.81;1751769;81;21167;-55
2021/03/01 04:40:14;;;;;;;3.40;2.30;;;;;;;2.03;90.36;100194.30;1756877;80;21151;-56
2021/03/01 04:42:45;;;;;;;2.25;1.87;;;;;;;2.07;90.39;100194.13;1760348;80;21179;-57
2021/03/01 04:45:16;;;;;;;4.90;2.98;;;;;;;2.10;90.11;100194.44;1765154;80;21312;-55
2021/03/01 04:47:44;;;;;;;3.62;2.62;;;;;;;2.09;89.91;100196.72;1752711;81;21197;-57
2021/03/01 04:50:14;;;;;;;3.05;2.12;;;;;;;2.11;89.84;100207.70;1760747;80;21159;-57
2021/03/01 04:52:43;;;;;;;3.60;2.52;;;;;;;2.14;89.61;100210.23;1764301;79;21179;-56
2021/03/01 04:55:12;;;;;;;5.80;3.20;;;;;;;2.13;88.89;100215.16;1764685;79;21586;-56
2021/03/01 04:57:40;;;;;;;3.40;2.30;;;;;;;2.09;88.98;100214.88;1769219;80;21154;-57
2021/03/01 05:00:10;;;;;;;4.72;2.90;;;;;;;2.09;88.68;100225.52;1765037;79;21143;-57
2021/03/01 05:02:38;;;;;;;5.72;2.95;;;;;;;2.05;88.54;100229.19;1720917;82;21207;-57
2021/03/01 05:05:09;;;;;;;4.83;3.35;;;;;;;2.03;88.56;100239.50;1762650;80;21124;-56
2021/03/01 05:07:37;;;;;;;4.12;3.10;;;;;;;2.01;88.66;100241.35;1763919;79;21243;-56
2021/03/01 05:10:08;;;;;;;4.00;3.00;;;;;;;2.04;88.81;100246.53;1758168;80;21116;-56
2021/03/01 05:12:36;;;;;;;6.45;4.15;;;;;;;2.08;88.76;100247.70;1755173;79;21191;-56
2021/03/01 05:15:06;;;;;;;7.15;4.37;;;;;;;2.09;88.74;100248.56;1772252;79;21629;-56
2021/03/01 05:17:34;;;;;;;6.05;4.37;;;;;;;2.10;88.81;100259.14;1762984;80;22166;-55
2021/03/01 05:20:02;;;;;;;8.73;5.53;;;;;;;2.14;88.75;100262.08;1769493;80;21761;-57
2021/03/01 05:22:30;;;;;;;5.28;4.17;;;;;;;2.15;88.68;100274.47;1776813;79;21154;-55
2021/03/01 05:24:57;;;;;;;6.45;4.87;;;;;;;2.16;88.55;100273.53;1759684;80;21337;-56
2021/03/01 05:27:25;;;;;;;7.20;4.85;;;;;;;2.14;88.52;100274.05;1773586;80;21739;-56
2021/03/01 05:29:53;;;;;;;8.65;6.47;;;;;;;2.16;88.55;100280.66;1767325;80;21164;-55
2021/03/01 05:32:21;;;;;;;7.85;5.97;;;;;;;2.17;88.50;100277.06;1767736;80;21798;-57
2021/03/01 05:34:49;;;;;;;7.58;5.47;;;;;;;2.19;88.42;100282.73;1771715;80;21324;-56
2021/03/01 05:37:17;;;;;;;9.93;5.80;;;;;;;2.20;88.44;100285.81;1766293;80;21075;-55
2021/03/01 05:39:45;;;;;;;8.78;6.08;;;;;;;2.26;88.51;100292.67;1770418;79;21287;-58
2021/03/01 05:42:13;;;;;;;7.33;5.60;;;;;;;2.28;88.45;100292.16;1702475;83;21731;-57
2021/03/01 05:44:41;;;;;;;7.72;5.60;;;;;;;2.33;88.49;100294.64;1704889;83;21210;-57
2021/03/01 05:47:11;;;;;;;11.03;7.08;;;;;;;2.37;88.45;100304.23;1763592;79;21306;-57
2021/03/01 05:49:40;;;;;;;10.05;7.00;;;;;;;2.35;88.14;100314.07;1759981;80;21170;-55
2021/03/01 05:52:09;;;;;;;13.70;6.55;;;;;;;2.33;88.35;100318.58;1737014;79;21119;-56
2021/03/01 05:54:37;;;;;;;11.95;6.87;;;;;;;2.35;88.43;100326.04;1729182;82;21211;-55
2021/03/01 05:57:06;;;;;;;9.78;6.72;;;;;;;2.37;88.56;100334.83;1778391;80;21176;-56
2021/03/01 05:59:34;;;;;;;11.18;7.00;;;;;;;2.37;88.52;100339.70;1744327;80;21443;-56
2021/03/01 06:02:03;;;;;;;12.93;7.70;;;;;;;2.35;88.62;100341.55;1780484;80;21594;-56
2021/03/01 06:04:31;;;;;;;12.05;8.45;;;;;;;2.38;88.84;100345.41;1765421;80;21558;-57
2021/03/01 06:06:59;;;;;;;11.38;8.55;;;;;;;2.43;88.92;100347.89;1755900;80;21149;-57
2021/03/01 06:09:26;;;;;;;11.35;8.80;;;;;;;2.47;88.87;100353.05;1765072;80;21166;-58
2021/03/01 06:11:55;;;;;;;13.00;8.50;;;;;;;2.50;88.92;100361.38;1779472;80;21162;-57
2021/03/01 06:14:24;;;;;;;12.13;8.55;;;;;;;2.52;88.80;100367.52;1771510;80;21163;-56
2021/03/01 06:17:18;;;;;;;11.65;7.33;;;;;;;2.50;88.73;100364.05;1755556;80;21176;-55
2021/03/01 06:19:56;;;;;;;;;;;;;;;2.49;88.82;100371.16;1764325;80;21645;-57
2021/03/01 06:22:40;;;;;;;9.88;6.53;;;;;;;2.43;88.59;100378.49;1750057;81;20230;-55
2021/03/01 06:25:15;;;;;;;8.98;5.53;;;;;;;2.38;88.82;100382.65;1751280;80;21305;-55
2021/03/01 06:27:59;;;;;;;9.00;5.47;;;;;;;2.39;88.83;100391.51;1760794;81;21179;-56
2021/03/01 06:30:36;;;;;;;9.73;6.08;;;;;;;2.41;88.95;100390.53;1771911;80;21298;-56
2021/03/01 06:33:16;;;;;;;7.47;6.03;;;;;;;2.44;88.84;100398.42;1760607;81;21205;-55
2021/03/01 06:35:59;;;;;;;8.68;5.35;;;;;;;2.45;88.75;100401.92;1764740;81;21161;-55
2021/03/01 06:38:34;;;;;;;7.37;5.50;;;;;;;2.44;88.58;100403.73;1768256;81;21167;-58
2021/03/01 06:41:17;;;;;;;9.28;5.95;;;;;;;2.39;88.49;100414.13;1770428;79;21167;-56
2021/03/01 06:43:59;;;;;;;8.88;5.87;;;;;;;2.37;88.63;100410.20;1767644;81;21167;-56
2021/03/01 06:46:33;;;;;;;9.55;5.40;;;;;;;2.35;88.67;100417.37;1756031;81;21684;-56
2021/03/01 06:49:14;;;;;;;6.78;5.28;;;;;;;2.37;88.75;100420.84;1755217;81;21139;-56
2021/03/01 06:51:42;;;;;;;6.37;4.70;;;;;;;2.41;88.76;100421.13;1758422;81;21119;-57
2021/03/01 06:54:22;;;;;;;7.35;4.87;;;;;;;2.41;88.57;100435.77;1760101;80;21139;-56
2021/03/01 06:56:50;;;;;;;7.08;4.78;;;;;;;2.43;88.58;100438.36;1772956;80;21455;-55
2021/03/01 06:59:19;;;;;;;7.47;5.65;;;;;;;2.43;88.50;100445.89;1756042;81;21131;-54
2021/03/01 07:01:58;;;;;;;6.65;4.70;;;;;;;2.40;88.64;100447.34;1758189;80;21191;-56
2021/03/01 07:04:30;;;;;;;7.20;4.85;;;;;;;2.44;88.87;100450.75;1763459;81;21219;-56
2021/03/01 07:07:02;;;;;;;8.38;5.10;;;;;;;2.49;88.96;100446.98;1750114;81;21602;-57
2021/03/01 07:09:32;;;;;;;6.55;4.85;;;;;;;2.51;88.72;100457.11;1750133;81;21199;-56
2021/03/01 07:12:00;;;;;;;7.50;5.33;;;;;;;2.48;88.75;100455.04;1753876;81;21162;-55
2021/03/01 07:14:28;;;;;;;8.88;5.60;;;;;;;2.48;88.90;100457.24;1690579;84;21263;-55
2021/03/01 07:16:58;;;;;;;8.30;6.10;;;;;;;2.50;88.95;100458.05;1749126;81;21349;-58
2021/03/01 07:19:32;;;;;;;7.28;5.20;;;;;;;2.51;88.81;100464.25;1766501;81;21314;-56
2021/03/01 07:22:03;;;;;;;9.28;5.78;;;;;;;2.48;88.65;100467.89;1748097;81;21182;-56
2021/03/01 07:24:31;;;;;;;8.38;5.95;;;;;;;2.48;88.82;100462.56;1755641;81;21179;-56
2021/03/01 07:27:02;;;;;;;8.63;5.45;;;;;;;2.53;88.91;100463.28;1753044;81;21223;-56
2021/03/01 07:29:32;;;;;;;8.83;6.22;;;;;;;2.58;88.67;100469.77;1765654;81;21158;-56
2021/03/01 07:32:05;;;;;;;6.80;5.10;;;;;;;2.59;88.35;100460.84;1761783;80;21141;-56
2021/03/01 07:34:35;;;;;;;7.22;5.28;;;;;;;2.58;88.42;100465.29;1767491;81;21547;-56
2021/03/01 07:37:04;;;;;;;7.25;5.60;;;;;;;2.61;88.36;100466.52;1769119;81;21173;-56
2021/03/01 07:39:32;;;;;;;7.33;5.25;;;;;;;2.63;88.08;100468.66;1768129;81;21179;-55
2021/03/01 07:42:01;;;;;;;7.55;5.67;;;;;;;2.64;87.82;100475.73;1772283;81;21175;-56
2021/03/01 07:44:33;;;;;;;7.30;5.33;;;;;;;2.64;87.89;100468.21;1753527;81;21158;-58
2021/03/01 07:47:03;;;;;;;8.10;5.50;;;;;;;2.67;87.81;100475.61;1750162;81;21166;-57
2021/03/01 07:49:48;;;;;;;12.88;5.87;;;;;;;2.73;87.75;100474.05;1765615;81;21166;-55
2021/03/01 07:52:31;;;;;;;11.70;4.97;;;;;;;2.78;87.62;100472.09;1753443;81;21139;-57
2021/03/01 07:55:08;;;;;;;8.23;5.03;;;;;;;2.85;87.35;100474.06;1777895;81;21151;-57
2021/03/01 07:57:38;;;;;;;7.17;4.83;;;;;;;2.89;87.11;100472.56;1778129;81;21859;-56
2021/03/01 08:00:30;;;;;;;7.42;5.20;;;;;;;2.93;86.59;100473.30;1774165;81;21654;-56
2021/03/01 08:02:58;;;;;;;9.48;5.28;;;;;;;2.92;86.21;100478.24;1773103;81;21265;-56
2021/03/01 08:05:32;;;;;;;7.35;4.92;;;;;;;2.91;86.10;100489.80;1760576;81;21436;-56
2021/03/01 08:08:01;;;;;;;7.90;4.78;;;;;;;2.90;86.05;100494.29;1749975;81;21167;-56
2021/03/01 08:10:34;;;;;;;6.65;4.42;;;;;;;2.91;85.96;100500.45;1721889;82;21156;-57
2021/03/01 08:13:05;;;;;;;7.87;5.53;;;;;;;2.92;86.16;100495.09;1768207;81;21201;-57
2021/03/01 08:15:39;;;;;;;6.30;4.65;;;;;;;2.94;85.97;100505.68;1773786;80;21175;-56
2021/03/01 08:18:10;;;;;;;7.12;4.85;;;;;;;2.88;85.47;100505.91;1770958;81;21151;-56
2021/03/01 08:20:42;;;;;;;7.80;4.53;;;;;;;2.81;85.79;100513.27;1773587;80;21139;-55
2021/03/01 08:23:13;;;;;;;7.65;4.72;;;;;;;2.81;86.05;100512.38;1749668;81;21171;-57
2021/03/01 08:25:51;;;;;;;6.22;4.50;;;;;;;2.80;86.20;100518.62;1752467;81;21308;-56
2021/03/01 08:28:30;;;;;;;4.80;3.98;;;;;;;2.77;86.16;100523.62;1748186;81;21252;-57
2021/03/01 08:31:21;;;;;;;6.03;4.50;;;;;;;2.71;86.21;100521.64;1753087;81;21304;-56
2021/03/01 08:33:49;;;;;;;7.50;5.60;;;;;;;2.69;86.42;100523.00;1739750;82;21301;-56
2021/03/01 08:36:21;;;;;;;7.33;5.15;;;;;;;2.70;86.74;100530.08;1772135;81;21633;-56
2021/03/01 08:38:50;;;;;;;7.37;5.22;;;;;;;2.78;86.90;100523.12;1761000;81;21714;-56
2021/03/01 08:41:28;;;;;;;6.92;5.00;;;;;;;2.83;86.84;100522.52;1758991;81;21773;-56
2021/03/01 08:43:56;;;;;;;6.17;5.00;;;;;;;2.89;86.82;100525.83;1743770;81;21200;-56
2021/03/01 08:46:24;;;;;;;6.40;5.70;;;;;;;2.94;86.97;100523.87;1751386;81;21613;-56
2021/03/01 08:48:57;;;;;;;4.67;3.90;;;;;;;3.05;86.89;100524.80;1763767;81;21140;-57
2021/03/01 08:51:25;;;;;;;6.58;4.10;;;;;;;3.10;86.14;100530.83;1765217;81;21337;-56
2021/03/01 08:53:53;;;;;;;5.97;4.33;;;;;;;3.11;86.15;100533.02;1755065;81;21180;-56
2021/03/01 08:56:23;;;;;;;5.45;4.20;;;;;;;3.21;86.57;100541.09;1767396;80;21188;-57
2021/03/01 08:58:51;;;;;;;6.15;4.78;;;;;;;3.40;86.42;100539.45;1765747;81;21183;-56
2021/03/01 09:01:19;;;;;;;7.22;5.08;;;;;;;3.54;86.02;100537.11;1752654;80;21151;-55
2021/03/01 09:03:47;;;;;;;7.03;4.90;;;;;;;3.61;85.61;100540.82;1757495;81;21607;-56
2021/03/01 09:06:23;;;;;;;5.53;4.30;;;;;;;3.68;85.37;100542.78;1745182;81;21274;-56
2021/03/01 09:08:53;;;;;;;5.05;4.08;;;;;;;3.74;85.09;100551.87;1749128;81;21194;-56
2021/03/01 09:11:30;;;;;;;5.42;4.08;;;;;;;3.77;84.48;100550.42;1761719;80;21313;-55
2021/03/01 09:14:05;;;;;;;5.40;3.90;;;;;;;3.76;83.82;100556.22;1768555;80;21148;-56
2021/03/01 09:16:35;;;;;;;5.40;3.95;;;;;;;3.67;82.96;100557.91;1760443;80;21195;-57
2021/03/01 09:19:12;;;;;;;5.72;4.62;;;;;;;3.53;83.03;100561.59;1755914;81;21144;-56
2021/03/01 09:21:42;;;;;;;6.00;4.50;;;;;;;3.51;83.38;100565.23;1758485;81;21167;-55
2021/03/01 09:24:11;;;;;;;5.85;4.70;;;;;;;3.54;83.31;100566.42;1772910;81;21159;-57
2021/03/01 09:26:40;;;;;;;6.62;4.47;;;;;;;3.54;83.46;100569.97;1758087;81;21317;-57
2021/03/01 09:29:18;;;;;;;7.10;5.05;;;;;;;3.63;83.47;100572.75;1756470;81;21316;-58
2021/03/01 09:31:54;;;;;;;6.62;5.45;;;;;;;3.70;83.64;100584.46;1756922;81;21362;-58
2021/03/01 09:34:29;;;;;;;7.22;4.28;;;;;;;3.84;83.51;100580.38;1763618;81;21321;-56
2021/03/01 09:36:58;;;;;;;5.70;4.40;;;;;;;3.93;82.98;100586.70;1749909;81;21163;-57
2021/03/01 09:39:26;;;;;;;6.60;4.75;;;;;;;3.92;81.80;100583.15;1766236;81;21366;-57
2021/03/01 09:41:54;;;;;;;6.20;4.70;;;;;;;3.89;81.84;100587.75;1756155;81;21583;-57
2021/03/01 09:44:28;;;;;;;5.42;4.00;;;;;;;3.94;81.70;100591.08;1760050;81;21171;-56
2021/03/01 09:46:57;;;;;;;6.55;5.05;;;;;;;4.00;81.14;100590.87;1770386;81;21167;-57
2021/03/01 09:49:26;;;;;;;6.58;4.53;;;;;;;4.03;80.90;100598.73;1760319;81;21171;-56
2021/03/01 09:51:54;;;;;;;5.97;5.05;;;;;;;4.09;80.71;100595.80;1771892;81;21184;-57
2021/03/01 09:54:22;;;;;;;9.28;5.05;;;;;;;4.14;80.44;100596.50;1761595;81;21188;-57
2021/03/01 09:56:54;;;;;;;6.50;4.90;;;;;;;4.20;80.42;100595.78;1761504;81;21289;-56
2021/03/01 09:59:41;;;;;;;7.12;5.42;;;;;;;4.26;80.61;100598.20;1752573;80;21151;-57
2021/03/01 10:02:18;;;;;;;6.55;5.15;;;;;;;4.37;80.01;100594.62;1757082;81;21566;-60
2021/03/01 10:04:46;;;;;;;6.25;4.28;;;;;;;4.44;79.12;100599.24;1771466;80;21198;-60
2021/03/01 10:07:21;;;;;;;5.05;4.55;;;;;;;4.39;78.70;100590.09;1708416;84;21330;-59
2021/03/01 10:09:49;;;;;;;4.55;4.08;;;;;;;4.31;78.51;100589.55;1759720;80;21239;-56
2021/03/01 10:12:17;;;;;;;5.85;4.95;;;;;;;4.21;78.50;100585.53;1763985;81;21630;-56
2021/03/01 10:14:46;;;;;;;6.70;5.17;;;;;;;4.23;78.97;100598.34;1781818;80;21201;-56
2021/03/01 10:17:24;;;;;;;4.83;3.95;;;;;;;4.25;78.48;100596.48;1786725;80;21151;-57
2021/03/01 10:19:52;;;;;;;5.12;4.58;;;;;;;4.24;78.53;100589.84;1786963;80;21155;-57
2021/03/01 10:22:19;;;;;;;4.80;3.87;;;;;;;4.25;78.78;100583.59;1776344;80;21171;-56
2021/03/01 10:24:49;;;;;;;5.10;3.90;;;;;;;4.29;78.39;100582.07;1755380;82;21160;-56
2021/03/01 10:27:17;;;;;;;4.50;4.00;;;;;;;4.23;78.04;100586.33;1766744;80;21198;-57
2021/03/01 10:29:49;;;;;;;4.53;4.00;;;;;;;4.25;78.30;100576.92;1763928;80;21135;-57
2021/03/01 10:32:21;;;;;;;4.47;3.83;;;;;;;4.29;77.91;100576.73;1737428;82;21195;-56
2021/03/01 10:34:50;;;;;;;5.12;4.62;;;;;;;4.32;77.87;100571.73;1756557;82;21167;-56
2021/03/01 10:37:23;;;;;;;5.10;4.15;;;;;;;4.41;78.12;100572.20;1756187;82;21550;-56
2021/03/01 10:39:51;;;;;;;5.12;4.00;;;;;;;4.53;77.73;100570.83;1756418;82;21351;-55
2021/03/01 10:42:20;;;;;;;4.53;3.90;;;;;;;4.56;76.93;100580.06;1756152;82;21188;-57
2021/03/01 10:45:00;;;;;;;5.60;4.40;;;;;;;4.49;76.79;100578.57;1763051;80;21151;-57
2021/03/01 10:47:31;;;;;;;6.22;4.47;;;;;;;4.49;76.79;100578.57;1771477;80;21170;-55
2021/03/01 10:50:20;;;;;;;4.78;4.28;;;;;;;4.47;76.85;100574.64;1763775;80;21138;-59
2021/03/01 10:52:50;;;;;;;5.80;4.85;;;;;;;4.48;76.86;100594.17;1776392;79;21349;-61
2021/03/01 10:55:18;;;;;;;7.03;4.53;;;;;;;4.50;77.10;100597.19;1764933;80;21118;-59
2021/03/01 10:57:46;;;;;;;6.20;4.72;;;;;;;4.54;76.71;100606.80;1762520;80;21170;-57
2021/03/01 11:00:16;;;;;;;5.35;4.37;;;;;;;4.55;76.96;100595.20;1778558;80;21099;-58
2021/03/01 11:02:44;;;;;;;5.78;4.50;;;;;;;4.58;76.42;100594.67;1775306;79;21637;-58
2021/03/01 11:05:14;;;;;;;6.50;5.17;;;;;;;4.52;76.27;100593.98;1772196;80;21197;-57
2021/03/01 11:07:43;;;;;;;5.15;4.37;;;;;;;4.50;76.47;100597.19;1780009;80;21741;-61
2021/03/01 11:10:12;;;;;;;4.85;4.22;;;;;;;4.49;76.77;100598.59;1760717;81;21176;-60
2021/03/01 11:12:40;;;;;;;5.92;4.85;;;;;;;4.51;76.60;100598.94;1761253;80;21165;-56
2021/03/01 11:15:10;;;;;;;8.38;4.65;;;;;;;4.52;76.65;100597.14;1763473;81;21180;-57
2021/03/01 11:17:38;;;;;;;6.00;4.95;;;;;;;4.52;76.75;100597.98;1752385;81;21277;-60
2021/03/01 11:20:08;;;;;;;6.25;5.05;;;;;;;4.56;76.74;100595.59;1747962;81;21170;-55
2021/03/01 11:22:36;;;;;;;6.55;5.20;;;;;;;4.60;76.74;100593.67;1737214;81;21361;-56
2021/03/01 11:25:06;;;;;;;6.78;5.15;;;;;;;4.65;76.55;100594.81;1736944;82;21449;-55
2021/03/01 11:27:34;;;;;;;6.28;4.97;;;;;;;4.69;76.46;100593.75;1737068;82;21187;-58
2021/03/01 11:30:04;;;;;;;7.22;5.35;;;;;;;4.76;76.43;100593.90;1736944;82;21317;-56
2021/03/01 11:32:31;;;;;;;6.87;5.12;;;;;;;4.82;76.33;100590.95;1755308;80;21146;-56
2021/03/01 11:34:59;;;;;;;8.78;5.83;;;;;;;4.89;76.08;100592.44;1766221;81;21111;-58
2021/03/01 11:37:27;;;;;;;5.75;4.60;;;;;;;4.89;75.94;100599.11;1763329;80;21317;-58
2021/03/01 11:39:55;;;;;;;5.33;4.20;;;;;;;4.89;75.94;100599.11;1768624;80;21187;-57
2021/03/01 11:42:23;;;;;;;7.67;5.35;;;;;;;4.88;75.43;100603.58;1765368;81;21190;-57
2021/03/01 11:44:50;;;;;;;5.92;4.60;;;;;;;4.85;75.61;100604.19;1711051;84;21185;-56
2021/03/01 11:47:23;;;;;;;6.20;5.05;;;;;;;4.82;75.23;100601.18;1778398;81;21339;-55
2021/03/01 11:49:51;;;;;;;6.45;5.55;;;;;;;4.68;75.31;100596.87;1758079;79;21163;-57
2021/03/01 11:52:19;;;;;;;6.20;5.30;;;;;;;4.56;76.14;100588.91;1704101;84;21314;-58
2021/03/01 11:54:46;;;;;;;4.85;4.15;;;;;;;4.56;76.14;100588.91;1758735;80;21293;-55
2021/03/01 11:57:14;;;;;;;5.65;4.72;;;;;;;4.52;76.19;100598.48;1757914;80;21474;-56
2021/03/01 11:59:42;;;;;;;5.87;4.67;;;;;;;4.46;76.30;100588.91;1759004;80;21277;-56
2021/03/01 12:02:10;;;;;;;6.05;4.87;;;;;;;4.46;76.65;100594.25;1756129;81;21167;-56
2021/03/01 12:04:37;;;;;;;4.62;4.08;;;;;;;4.50;76.73;100590.52;1769090;81;21189;-57
2021/03/01 12:07:07;;;;;;;5.50;4.78;;;;;;;4.53;76.58;100595.73;1759800;80;21182;-56
2021/03/01 12:09:36;;;;;;;5.25;4.42;;;;;;;4.48;76.71;100597.72;1753989;81;21155;-56
2021/03/01 12:12:04;;;;;;;6.33;5.00;;;;;;;4.39;76.80;100599.43;1759935;80;21147;-55
2021/03/01 12:14:34;;;;;;;6.58;5.15;;;;;;;4.31;77.19;100592.21;1749375;81;21183;-56
2021/03/01 12:17:01;;;;;;;9.05;6.08;;;;;;;4.31;77.45;100598.89;1769474;80;21147;-56
2021/03/01 12:19:29;;;;;;;12.50;5.87;;;;;;;4.29;77.66;100600.75;1764772;80;21530;-57
2021/03/01 12:21:58;;;;;;;5.37;4.62;;;;;;;4.30;77.89;100605.14;1715857;82;21156;-55
2021/03/01 12:24:25;;;;;;;7.45;5.42;;;;;;;4.34;77.62;100606.78;1758440;80;21320;-57
2021/03/01 12:26:53;;;;;;;8.63;5.67;;;;;;;4.31;77.50;100604.23;1760395;80;21185;-57
2021/03/01 12:29:22;;;;;;;7.53;5.42;;;;;;;4.30;77.52;100604.30;1772283;80;21111;-56
2021/03/01 12:31:49;;;;;;;7.37;5.12;;;;;;;4.32;77.45;100610.44;1774228;80;21159;-56
2021/03/01 12:34:18;;;;;;;6.65;5.40;;;;;;;4.28;77.46;100609.67;1757751;80;21142;-56
2021/03/01 12:36:46;;;;;;;6.35;4.70;;;;;;;4.22;77.61;100607.27;1767140;80;21293;-56
2021/03/01 12:39:15;;;;;;;6.60;4.92;;;;;;;4.18;77.73;100607.45;1755202;80;21143;-56
2021/03/01 12:41:43;;;;;;;7.70;5.90;;;;;;;4.13;77.78;100611.63;1758873;80;21663;-60
2021/03/01 12:44:11;;;;;;;7.37;5.55;;;;;;;4.14;78.00;100612.05;1757809;80;21172;-57
2021/03/01 12:46:40;;;;;;;8.15;6.03;;;;;;;4.14;78.07;100611.17;1728070;82;21333;-58
2021/03/01 12:49:08;;;;;;;8.60;5.50;;;;;;;4.19;78.37;100614.54;1765877;80;21226;-58
2021/03/01 12:51:36;;;;;;;7.37;5.58;;;;;;;4.24;78.45;100610.73;1766213;80;21170;-57
2021/03/01 12:54:09;;;;;;;8.00;5.67;;;;;;;4.28;78.11;100612.34;1764948;80;21188;-59
2021/03/01 12:56:37;;;;;;;7.97;5.15;;;;;;;4.32;78.11;100619.33;1768835;80;22062;-58
2021/03/01 12:59:05;;;;;;;8.28;6.30;;;;;;;4.37;77.74;100624.44;1721680;82;21182;-56
2021/03/01 13:01:33;;;;;;;8.73;5.92;;;;;;;4.34;77.69;100621.47;1770577;80;21578;-56
2021/03/01 13:04:04;;;;;;;8.93;6.25;;;;;;;4.36;77.72;100620.05;1766873;80;21585;-58
2021/03/01 13:06:32;;;;;;;9.93;6.90;;;;;;;4.39;77.75;100618.61;1774521;80;21321;-59
2021/03/01 13:09:00;;;;;;;11.33;7.03;;;;;;;4.40;77.79;100625.21;1762381;80;21178;-59
2021/03/01 13:11:29;;;;;;;11.08;6.45;;;;;;;4.40;77.62;100625.21;1715763;82;21618;-58
2021/03/01 13:14:00;;;;;;;11.08;7.10;;;;;;;4.41;77.42;100626.92;1716475;82;21328;-57
2021/03/01 13:16:28;;;;;;;12.65;6.78;;;;;;;4.42;77.52;100627.34;1736425;82;21263;-57
2021/03/01 13:18:59;;;;;;;9.40;6.85;;;;;;;4.46;77.56;100626.74;1756598;80;21227;-58
2021/03/01 13:21:27;;;;;;;7.87;6.33;;;;;;;4.45;77.49;100627.23;1759090;80;21349;-60
2021/03/01 13:23:57;;;;;;;11.35;6.83;;;;;;;4.46;77.46;100628.08;1770285;80;21167;-58
2021/03/01 13:26:25;;;;;;;8.28;5.92;;;;;;;4.46;77.39;100627.63;1696650;82;21207;-57
2021/03/01 13:28:56;;;;;;;6.10;4.53;;;;;;;4.43;77.31;100631.73;1772928;79;21308;-57
2021/03/01 13:31:24;;;;;;;8.85;4.87;;;;;;;4.35;77.05;100636.53;1747555;80;21278;-58
2021/03/01 13:33:52;;;;;;;6.03;4.67;;;;;;;4.26;77.29;100630.71;1757393;80;21285;-57
2021/03/01 13:36:20;;;;;;;5.37;4.05;;;;;;;4.23;77.63;100637.04;1756282;80;21252;-56
2021/03/01 13:38:48;;;;;;;4.12;3.05;;;;;;;4.19;77.79;100634.09;1761876;80;21202;-56
2021/03/01 13:41:16;;;;;;;3.08;1.62;;;;;;;4.14;76.60;100629.85;1720097;82;21171;-57
2021/03/01 13:43:45;;;;;;;11.22;7.65;;;;;;;4.04;74.94;100629.83;1758533;80;21349;-57
2021/03/01 13:46:14;;;;;;;4.08;2.40;;;;;;;3.94;74.82;100626.64;1760964;80;21163;-61
2021/03/01 13:48:43;;;;;;;2.10;1.57;;;;;;;3.96;74.94;100622.11;1758269;80;21172;-58
2021/03/01 13:51:11;;;;;;;3.90;1.82;;;;;;;4.05;74.75;100624.42;1752612;81;21312;-56
2021/03/01 13:53:39;;;;;;;4.70;1.40;;;;;;;4.14;73.99;100624.06;1763254;80;21512;-57
2021/03/01 13:56:07;;;;;;;3.52;2.85;;;;;;;4.22;73.67;100619.27;1759519;80;21195;-56
2021/03/01 13:58:35;;;;;;;3.62;2.40;;;;;;;4.28;73.38;100624.84;1763309;81;21221;-55
2021/03/01 14:01:03;;;;;;;4.10;2.83;;;;;;;4.29;73.19;100618.10;1759648;80;21323;-57